Culcheth, United Kingdom
Current Conditions -  °F | °C
As of 6:50 PM on Friday 24 Oct 2014 (Local Time) from EGCC Reporting Station
Clear Clear  
Wind Chill: 50°   Ceiling: Unl
Heat Index: 50°   Visibility: 6mi
Dew Point: 43°   Wind: 9mph
Humidity: 76%   Direction: 240°WSW
Pressure: 29.88"   Gusts: NA
Location:  53.45°N, 2.52°W
Report Text: EGCC 241750Z 24008KT CAVOK 10/06 Q1012 NOSIG
Loading
Personal Weather Stations






























Interactive Weather Map
Tropical Storm Tracking
New forecast layout! Learn more

10-Day Weather Forecast

Advertisements
Track Severe Weather on mobile